sensor_id;sensor_type;location;lat;lon;timestamp;temperature;humidity
8481;DHT22;4277;51.354;6.740;2022-10-31T12:07:58;15.00;99.90
8481;DHT22;4277;51.354;6.740;2022-10-31T12:10:29;17.00;99.90
8481;DHT22;4277;51.354;6.740;2022-10-31T12:13:19;17.00;99.90
8481;DHT22;4277;51.354;6.740;2022-10-31T12:15:58;17.00;99.90
8481;DHT22;4277;51.354;6.740;2022-10-31T12:21:33;17.00;99.90
8481;DHT22;4277;51.354;6.740;2022-10-31T12:24:18;17.10;99.90
8481;DHT22;4277;51.354;6.740;2022-10-31T12:26:57;17.10;99.90
8481;DHT22;4277;51.354;6.740;2022-10-31T12:29:45;17.30;99.90
8481;DHT22;4277;51.354;6.740;2022-10-31T12:35:17;17.10;99.90
8481;DHT22;4277;51.354;6.740;2022-10-31T12:41:22;17.20;99.90
8481;DHT22;4277;51.354;6.740;2022-10-31T12:46:59;17.30;99.90
8481;DHT22;4277;51.354;6.740;2022-10-31T12:50:01;17.40;99.90
8481;DHT22;4277;51.354;6.740;2022-10-31T12:55:32;17.60;99.90
8481;DHT22;4277;51.354;6.740;2022-10-31T12:58:09;17.80;99.90
8481;DHT22;4277;51.354;6.740;2022-10-31T13:00:38;17.40;99.90
8481;DHT22;4277;51.354;6.740;2022-10-31T13:03:35;17.50;99.90
8481;DHT22;4277;51.354;6.740;2022-10-31T13:06:08;17.60;99.90
8481;DHT22;4277;51.354;6.740;2022-10-31T13:08:54;17.50;99.90
8481;DHT22;4277;51.354;6.740;2022-10-31T13:11:34;17.50;99.90
8481;DHT22;4277;51.354;6.740;2022-10-31T13:14:23;17.50;99.90
8481;DHT22;4277;51.354;6.740;2022-10-31T13:16:51;17.60;99.90
8481;DHT22;4277;51.354;6.740;2022-10-31T13:19:20;17.40;99.90
8481;DHT22;4277;51.354;6.740;2022-10-31T13:24:23;17.60;99.90
8481;DHT22;4277;51.354;6.740;2022-10-31T13:26:53;17.40;99.90
8481;DHT22;4277;51.354;6.740;2022-10-31T13:32:13;17.40;99.90
8481;DHT22;4277;51.354;6.740;2022-10-31T13:34:52;17.40;99.90
8481;DHT22;4277;51.354;6.740;2022-10-31T13:45:15;17.70;99.90
8481;DHT22;4277;51.354;6.740;2022-10-31T13:47:42;17.60;99.90
8481;DHT22;4277;51.354;6.740;2022-10-31T13:50:31;17.70;99.90
8481;DHT22;4277;51.354;6.740;2022-10-31T13:53:18;17.80;99.90
8481;DHT22;4277;51.354;6.740;2022-10-31T13:55:47;17.70;99.90
8481;DHT22;4277;51.354;6.740;2022-10-31T13:58:29;17.60;99.90
8481;DHT22;4277;51.354;6.740;2022-10-31T14:01:14;17.50;99.90
8481;DHT22;4277;51.354;6.740;2022-10-31T14:03:43;17.60;99.90
8481;DHT22;4277;51.354;6.740;2022-10-31T14:06:10;17.40;99.90
8481;DHT22;4277;51.354;6.740;2022-10-31T14:08:40;17.30;99.90
8481;DHT22;4277;51.354;6.740;2022-10-31T14:11:09;17.40;99.90
8481;DHT22;4277;51.354;6.740;2022-10-31T14:13:45;17.50;99.90
8481;DHT22;4277;51.354;6.740;2022-10-31T14:18:50;17.60;99.90
8481;DHT22;4277;51.354;6.740;2022-10-31T14:23:48;17.70;99.90
8481;DHT22;4277;51.354;6.740;2022-10-31T14:28:52;17.80;99.90
8481;DHT22;4277;51.354;6.740;2022-10-31T14:31:31;17.90;99.90
8481;DHT22;4277;51.354;6.740;2022-10-31T14:39:57;17.80;99.90
8481;DHT22;4277;51.354;6.740;2022-10-31T14:42:55;17.80;99.90
8481;DHT22;4277;51.354;6.740;2022-10-31T14:51:00;17.60;99.90
8481;DHT22;4277;51.354;6.740;2022-10-31T14:55:55;17.50;99.90
8481;DHT22;4277;51.354;6.740;2022-10-31T14:58:42;17.40;99.90
8481;DHT22;4277;51.354;6.740;2022-10-31T15:01:23;17.40;99.90
8481;DHT22;4277;51.354;6.740;2022-10-31T15:03:50;17.40;99.90
8481;DHT22;4277;51.354;6.740;2022-10-31T15:06:18;17.40;99.90
8481;DHT22;4277;51.354;6.740;2022-10-31T15:11:20;17.40;99.90
8481;DHT22;4277;51.354;6.740;2022-10-31T15:13:49;17.40;99.90
8481;DHT22;4277;51.354;6.740;2022-10-31T15:16:22;17.40;99.90
8481;DHT22;4277;51.354;6.740;2022-10-31T15:18:52;17.40;99.90
8481;DHT22;4277;51.354;6.740;2022-10-31T15:21:20;17.40;99.90
8481;DHT22;4277;51.354;6.740;2022-10-31T15:23:46;17.30;99.90
8481;DHT22;4277;51.354;6.740;2022-10-31T15:26:18;17.30;99.90
8481;DHT22;4277;51.354;6.740;2022-10-31T15:28:45;17.30;99.90
8481;DHT22;4277;51.354;6.740;2022-10-31T15:31:16;17.30;99.90
8481;DHT22;4277;51.354;6.740;2022-10-31T15:33:44;17.30;99.90
8481;DHT22;4277;51.354;6.740;2022-10-31T15:36:23;17.20;99.90
8481;DHT22;4277;51.354;6.740;2022-10-31T15:38:49;17.20;99.90
8481;DHT22;4277;51.354;6.740;2022-10-31T15:41:38;17.20;99.90
8481;DHT22;4277;51.354;6.740;2022-10-31T15:44:13;17.20;99.90
8481;DHT22;4277;51.354;6.740;2022-10-31T15:46:40;17.10;99.90
8481;DHT22;4277;51.354;6.740;2022-10-31T15:49:17;17.10;99.90
8481;DHT22;4277;51.354;6.740;2022-10-31T15:51:46;17.10;99.90
8481;DHT22;4277;51.354;6.740;2022-10-31T15:54:13;17.10;99.90
8481;DHT22;4277;51.354;6.740;2022-10-31T15:56:43;17.10;99.90
8481;DHT22;4277;51.354;6.740;2022-10-31T15:59:18;17.10;99.90
8481;DHT22;4277;51.354;6.740;2022-10-31T16:01:59;17.10;99.90
8481;DHT22;4277;51.354;6.740;2022-10-31T16:04:25;17.10;99.90
8481;DHT22;4277;51.354;6.740;2022-10-31T16:07:10;17.00;99.90
8481;DHT22;4277;51.354;6.740;2022-10-31T16:09:37;17.00;99.90
8481;DHT22;4277;51.354;6.740;2022-10-31T16:12:02;17.00;99.90
8481;DHT22;4277;51.354;6.740;2022-10-31T16:14:30;17.00;99.90
8481;DHT22;4277;51.354;6.740;2022-10-31T16:16:58;17.00;99.90
8481;DHT22;4277;51.354;6.740;2022-10-31T16:19:31;17.00;99.90
8481;DHT22;4277;51.354;6.740;2022-10-31T16:22:10;17.00;99.90
8481;DHT22;4277;51.354;6.740;2022-10-31T16:24:45;17.00;99.90
8481;DHT22;4277;51.354;6.740;2022-10-31T16:27:20;17.00;99.90
8481;DHT22;4277;51.354;6.740;2022-10-31T16:29:51;17.00;99.90
8481;DHT22;4277;51.354;6.740;2022-10-31T16:32:53;16.90;99.90
8481;DHT22;4277;51.354;6.740;2022-10-31T16:37:53;16.80;99.90
8481;DHT22;4277;51.354;6.740;2022-10-31T16:40:19;16.70;99.90
8481;DHT22;4277;51.354;6.740;2022-10-31T16:42:46;16.80;99.90
8481;DHT22;4277;51.354;6.740;2022-10-31T16:45:22;16.70;99.90
8481;DHT22;4277;51.354;6.740;2022-10-31T16:47:48;16.70;99.90
8481;DHT22;4277;51.354;6.740;2022-10-31T16:52:42;16.60;99.90
8481;DHT22;4277;51.354;6.740;2022-10-31T16:55:12;16.50;99.90
8481;DHT22;4277;51.354;6.740;2022-10-31T16:57:38;16.40;99.90
8481;DHT22;4277;51.354;6.740;2022-10-31T17:00:06;16.30;99.90
8481;DHT22;4277;51.354;6.740;2022-10-31T17:02:32;16.30;99.90
8481;DHT22;4277;51.354;6.740;2022-10-31T17:04:58;16.30;99.90
8481;DHT22;4277;51.354;6.740;2022-10-31T17:07:24;16.30;99.90
8481;DHT22;4277;51.354;6.740;2022-10-31T17:09:49;16.30;99.90
8481;DHT22;4277;51.354;6.740;2022-10-31T17:12:18;16.30;99.90
8481;DHT22;4277;51.354;6.740;2022-10-31T17:14:46;16.20;99.90
8481;DHT22;4277;51.354;6.740;2022-10-31T17:17:13;16.20;99.90
8481;DHT22;4277;51.354;6.740;2022-10-31T17:19:38;16.10;99.90
8481;DHT22;4277;51.354;6.740;2022-10-31T17:22:04;16.10;99.90
8481;DHT22;4277;51.354;6.740;2022-10-31T17:24:29;16.10;99.90
8481;DHT22;4277;51.354;6.740;2022-10-31T17:26:55;16.10;99.90
8481;DHT22;4277;51.354;6.740;2022-10-31T17:29:20;16.10;99.90
8481;DHT22;4277;51.354;6.740;2022-10-31T17:31:46;16.10;99.90
8481;DHT22;4277;51.354;6.740;2022-10-31T17:34:11;16.10;99.90
8481;DHT22;4277;51.354;6.740;2022-10-31T17:36:37;16.20;99.90
8481;DHT22;4277;51.354;6.740;2022-10-31T17:39:03;16.20;99.90
8481;DHT22;4277;51.354;6.740;2022-10-31T17:41:30;16.20;99.90
8481;DHT22;4277;51.354;6.740;2022-10-31T17:43:56;16.20;99.90
8481;DHT22;4277;51.354;6.740;2022-10-31T17:46:22;16.30;99.90
8481;DHT22;4277;51.354;6.740;2022-10-31T17:48:47;16.40;99.90
8481;DHT22;4277;51.354;6.740;2022-10-31T17:51:13;16.40;99.90
8481;DHT22;4277;51.354;6.740;2022-10-31T17:53:38;16.40;99.90
8481;DHT22;4277;51.354;6.740;2022-10-31T17:56:06;16.50;99.90
8481;DHT22;4277;51.354;6.740;2022-10-31T17:58:33;16.50;99.90
8481;DHT22;4277;51.354;6.740;2022-10-31T18:00:59;16.50;99.90
8481;DHT22;4277;51.354;6.740;2022-10-31T18:03:26;16.50;99.90
8481;DHT22;4277;51.354;6.740;2022-10-31T18:05:56;16.50;99.90
8481;DHT22;4277;51.354;6.740;2022-10-31T18:08:30;16.50;99.90
8481;DHT22;4277;51.354;6.740;2022-10-31T18:10:56;16.50;99.90
8481;DHT22;4277;51.354;6.740;2022-10-31T18:13:26;16.50;99.90
8481;DHT22;4277;51.354;6.740;2022-10-31T18:15:52;16.50;99.90
8481;DHT22;4277;51.354;6.740;2022-10-31T18:18:18;16.60;99.90
8481;DHT22;4277;51.354;6.740;2022-10-31T18:20:43;16.60;99.90
8481;DHT22;4277;51.354;6.740;2022-10-31T18:23:10;16.60;99.90
8481;DHT22;4277;51.354;6.740;2022-10-31T18:25:36;16.60;99.90
8481;DHT22;4277;51.354;6.740;2022-10-31T18:28:04;16.70;99.90
8481;DHT22;4277;51.354;6.740;2022-10-31T18:30:30;16.60;99.90
8481;DHT22;4277;51.354;6.740;2022-10-31T18:32:56;16.60;99.90
8481;DHT22;4277;51.354;6.740;2022-10-31T18:35:21;16.60;99.90
8481;DHT22;4277;51.354;6.740;2022-10-31T18:37:47;16.50;99.90
8481;DHT22;4277;51.354;6.740;2022-10-31T18:40:12;16.50;99.90
8481;DHT22;4277;51.354;6.740;2022-10-31T18:42:38;16.50;99.90
8481;DHT22;4277;51.354;6.740;2022-10-31T18:45:04;16.40;99.90
8481;DHT22;4277;51.354;6.740;2022-10-31T18:47:30;16.40;99.90
8481;DHT22;4277;51.354;6.740;2022-10-31T18:49:55;16.40;99.90
8481;DHT22;4277;51.354;6.740;2022-10-31T18:52:21;16.30;99.90
8481;DHT22;4277;51.354;6.740;2022-10-31T18:54:46;16.30;99.90
8481;DHT22;4277;51.354;6.740;2022-10-31T18:57:12;16.30;99.90
8481;DHT22;4277;51.354;6.740;2022-10-31T18:59:37;16.30;99.90
8481;DHT22;4277;51.354;6.740;2022-10-31T19:02:03;16.30;99.90
8481;DHT22;4277;51.354;6.740;2022-10-31T19:04:28;16.20;99.90
8481;DHT22;4277;51.354;6.740;2022-10-31T19:06:54;16.20;99.90
8481;DHT22;4277;51.354;6.740;2022-10-31T19:09:20;16.10;99.90
8481;DHT22;4277;51.354;6.740;2022-10-31T19:11:46;16.10;99.90
8481;DHT22;4277;51.354;6.740;2022-10-31T19:14:12;16.10;99.90
8481;DHT22;4277;51.354;6.740;2022-10-31T19:16:38;16.10;99.90
8481;DHT22;4277;51.354;6.740;2022-10-31T19:19:04;16.00;99.90
8481;DHT22;4277;51.354;6.740;2022-10-31T19:21:30;16.00;99.90
8481;DHT22;4277;51.354;6.740;2022-10-31T19:23:57;16.00;99.90
8481;DHT22;4277;51.354;6.740;2022-10-31T19:26:24;15.90;99.90
8481;DHT22;4277;51.354;6.740;2022-10-31T19:28:50;15.90;99.90
8481;DHT22;4277;51.354;6.740;2022-10-31T19:31:16;15.90;99.90
8481;DHT22;4277;51.354;6.740;2022-10-31T19:33:43;15.80;99.90
8481;DHT22;4277;51.354;6.740;2022-10-31T19:36:11;15.80;99.90
8481;DHT22;4277;51.354;6.740;2022-10-31T19:38:40;15.80;99.90
8481;DHT22;4277;51.354;6.740;2022-10-31T19:48:29;15.80;99.90
8481;DHT22;4277;51.354;6.740;2022-10-31T19:51:03;15.80;99.90
8481;DHT22;4277;51.354;6.740;2022-10-31T19:53:30;15.70;99.90
8481;DHT22;4277;51.354;6.740;2022-10-31T19:55:56;15.70;99.90
8481;DHT22;4277;51.354;6.740;2022-10-31T19:58:22;15.70;99.90
8481;DHT22;4277;51.354;6.740;2022-10-31T20:00:48;15.60;99.90
8481;DHT22;4277;51.354;6.740;2022-10-31T20:03:13;15.60;99.90
8481;DHT22;4277;51.354;6.740;2022-10-31T20:05:40;15.60;99.90
8481;DHT22;4277;51.354;6.740;2022-10-31T20:08:06;15.60;99.90
8481;DHT22;4277;51.354;6.740;2022-10-31T20:10:32;15.60;99.90
8481;DHT22;4277;51.354;6.740;2022-10-31T20:12:57;15.60;99.90
8481;DHT22;4277;51.354;6.740;2022-10-31T20:15:23;15.50;99.90
8481;DHT22;4277;51.354;6.740;2022-10-31T20:17:48;15.40;99.90
